createdAt,value
2023-03-11T00:02:05.796Z,10.01
2023-03-11T00:05:10.022Z,9.98
2023-03-11T00:08:17.708Z,9.88
2023-03-11T00:11:23.622Z,9.93
2023-03-11T00:14:27.770Z,9.83
2023-03-11T00:17:31.225Z,9.80
2023-03-11T00:20:37.996Z,9.72
2023-03-11T00:23:40.874Z,9.75
2023-03-11T00:26:43.458Z,9.71
2023-03-11T00:29:46.469Z,9.71
2023-03-11T00:32:51.710Z,9.76
2023-03-11T00:35:55.546Z,9.64
2023-03-11T00:38:59.294Z,9.69
2023-03-11T00:42:04.120Z,9.71
2023-03-11T00:45:09.256Z,9.70
2023-03-11T00:48:13.965Z,9.75
2023-03-11T00:51:17.138Z,9.82
2023-03-11T00:54:20.134Z,9.82
2023-03-11T00:57:22.890Z,9.87
2023-03-11T01:00:27.833Z,9.97
2023-03-11T01:03:33.148Z,10.01
2023-03-11T01:06:45.104Z,10.02
2023-03-11T01:09:48.755Z,10.03
2023-03-11T01:12:56.890Z,10.00
2023-03-11T01:15:59.764Z,9.97
2023-03-11T01:19:05.561Z,9.91
2023-03-11T01:22:08.389Z,9.86
2023-03-11T01:25:14.923Z,9.74
2023-03-11T01:28:17.746Z,9.59
2023-03-11T01:31:20.977Z,9.59
2023-03-11T01:34:23.907Z,9.59
2023-03-11T01:37:27.682Z,9.55
2023-03-11T01:40:30.432Z,9.49
2023-03-11T01:43:41.231Z,9.44
2023-03-11T01:46:54.012Z,9.42
2023-03-11T01:49:57.601Z,9.39
2023-03-11T01:53:04.654Z,9.30
2023-03-11T01:56:07.918Z,9.22
2023-03-11T01:59:14.284Z,9.10
2023-03-11T02:02:31.294Z,9.06
2023-03-11T02:05:35.435Z,8.99
2023-03-11T02:08:40.956Z,8.94
2023-03-11T02:11:44.211Z,9.04
2023-03-11T02:14:51.256Z,9.05
2023-03-11T02:17:56.447Z,9.03
2023-03-11T02:21:40.306Z,9.02
2023-03-11T02:24:54.150Z,8.96
2023-03-11T02:27:59.486Z,8.98
2023-03-11T02:31:03.989Z,9.13
2023-03-11T02:34:13.872Z,9.15
2023-03-11T02:37:18.443Z,9.15
2023-03-11T02:40:24.870Z,9.14
2023-03-11T02:43:37.520Z,9.15
2023-03-11T02:46:42.711Z,9.11
2023-03-11T02:49:46.271Z,9.13
2023-03-11T02:52:50.218Z,9.18
2023-03-11T02:55:53.081Z,9.16
2023-03-11T02:58:55.769Z,9.13
2023-03-11T03:01:58.684Z,9.10
2023-03-11T03:05:03.927Z,9.19
2023-03-11T03:08:06.952Z,9.15
2023-03-11T03:11:09.736Z,9.25
2023-03-11T03:14:14.824Z,9.33
2023-03-11T03:17:17.730Z,9.36
2023-03-11T03:20:22.923Z,9.42
2023-03-11T03:23:25.970Z,9.43
2023-03-11T03:26:29.124Z,9.45
2023-03-11T03:29:33.714Z,9.54
2023-03-11T03:32:38.909Z,9.51
2023-03-11T03:35:45.269Z,9.46
2023-03-11T03:38:51.430Z,9.43
2023-03-11T03:41:54.254Z,9.46
2023-03-11T03:44:57.809Z,9.44
2023-03-11T03:48:00.610Z,9.43
2023-03-11T03:51:13.413Z,9.40
2023-03-11T03:54:16.646Z,9.37
2023-03-11T03:57:20.476Z,9.27
2023-03-11T04:00:23.820Z,9.24
2023-03-11T04:03:28.797Z,9.24
2023-03-11T04:06:32.680Z,9.20
2023-03-11T04:09:39.784Z,9.17
2023-03-11T04:12:42.716Z,9.19
2023-03-11T04:15:45.876Z,9.09
2023-03-11T04:18:49.099Z,9.04
2023-03-11T04:21:53.583Z,9.05
2023-03-11T04:24:59.116Z,8.90
2023-03-11T04:28:02.757Z,8.76
2023-03-11T04:31:07.764Z,8.87
2023-03-11T04:34:13.052Z,8.77
2023-03-11T04:37:41.577Z,8.65
2023-03-11T04:41:24.227Z,8.64
2023-03-11T04:44:27.523Z,8.52
2023-03-11T04:47:31.032Z,8.52
2023-03-11T04:50:34.301Z,8.52
2023-03-11T04:53:37.227Z,8.42
2023-03-11T04:56:40.050Z,8.41
2023-03-11T04:59:45.084Z,8.17
2023-03-11T05:02:47.848Z,7.93
2023-03-11T05:05:52.936Z,7.92
2023-03-11T05:08:56.179Z,7.81
2023-03-11T05:12:01.856Z,7.73
2023-03-11T05:15:06.856Z,7.65
2023-03-11T05:18:12.742Z,7.56
2023-03-11T05:21:16.063Z,7.40
2023-03-11T05:24:19.636Z,7.32
2023-03-11T05:27:29.403Z,7.30
2023-03-11T05:30:33.623Z,7.19
2023-03-11T05:33:39.509Z,7.21
2023-03-11T05:36:43.617Z,7.28
2023-03-11T05:39:47.296Z,7.13
2023-03-11T05:42:51.794Z,7.16
2023-03-11T05:45:54.851Z,7.11
2023-03-11T05:49:01.941Z,6.94
2023-03-11T05:52:04.932Z,6.90
2023-03-11T05:55:09.977Z,7.03
2023-03-11T05:58:15.222Z,6.93
2023-03-11T06:01:20.781Z,6.79
2023-03-11T06:04:25.149Z,6.83
2023-03-11T06:07:28.268Z,6.97
2023-03-11T06:10:34.674Z,6.83
2023-03-11T06:13:37.886Z,6.72
2023-03-11T06:16:41.927Z,6.65
2023-03-11T06:19:45.473Z,6.65
2023-03-11T06:22:49.639Z,6.93
2023-03-11T06:26:05.508Z,6.85
2023-03-11T06:29:14.317Z,6.88
2023-03-11T06:32:17.462Z,6.82
2023-03-11T06:35:21.237Z,6.82
2023-03-11T06:38:24.167Z,6.84
2023-03-11T06:41:27.251Z,6.88
2023-03-11T06:44:30.316Z,6.62
2023-03-11T06:47:33.860Z,6.62
2023-03-11T06:50:37.002Z,6.80
2023-03-11T06:53:42.452Z,6.82
2023-03-11T06:56:46.473Z,7.37
2023-03-11T06:59:51.395Z,6.92
2023-03-11T07:02:54.666Z,7.10
2023-03-11T07:06:00.302Z,7.80
2023-03-11T07:09:05.227Z,7.43
2023-03-11T07:12:09.170Z,7.46
2023-03-11T07:15:13.358Z,7.46
2023-03-11T07:18:17.664Z,8.19
2023-03-11T07:21:23.310Z,8.89
2023-03-11T07:24:26.206Z,8.04
2023-03-11T07:27:32.439Z,7.44
2023-03-11T07:30:35.657Z,7.50
2023-03-11T07:33:38.616Z,7.96
2023-03-11T07:36:42.244Z,7.92
2023-03-11T07:40:11.563Z,7.58
2023-03-11T07:43:15.199Z,7.53
2023-03-11T07:46:18.690Z,7.52
2023-03-11T07:49:22.266Z,7.95
2023-03-11T07:52:55.250Z,7.71
2023-03-11T07:56:01.932Z,8.52
2023-03-11T07:59:45.973Z,8.75
2023-03-11T08:02:49.200Z,8.38
2023-03-11T08:05:52.457Z,8.32
2023-03-11T08:08:55.165Z,8.16
2023-03-11T08:11:58.195Z,9.08
2023-03-11T08:15:00.789Z,9.28
2023-03-11T08:18:05.319Z,8.88
2023-03-11T08:21:13.671Z,8.54
2023-03-11T08:24:17.910Z,8.40
2023-03-11T08:27:20.751Z,7.89
2023-03-11T08:30:25.389Z,8.69
2023-03-11T08:33:28.686Z,8.60
2023-03-11T08:36:32.272Z,9.25
2023-03-11T08:39:35.079Z,8.99
2023-03-11T08:42:38.455Z,10.49
2023-03-11T08:45:42.018Z,9.41
2023-03-11T08:48:45.009Z,10.91
2023-03-11T08:51:48.363Z,10.91
2023-03-11T08:54:51.249Z,11.15
2023-03-11T08:57:54.283Z,11.42
2023-03-11T09:00:57.488Z,11.26
2023-03-11T09:04:00.235Z,11.90
2023-03-11T09:07:03.246Z,12.78
2023-03-11T09:10:07.396Z,10.02
2023-03-11T09:13:10.393Z,10.19
2023-03-11T09:16:20.795Z,9.13
2023-03-11T09:19:23.630Z,10.11
2023-03-11T09:22:26.455Z,10.34
2023-03-11T09:25:30.300Z,11.37
2023-03-11T09:28:34.566Z,11.19
2023-03-11T09:31:38.725Z,11.85
2023-03-11T09:34:43.335Z,10.92
2023-03-11T09:37:46.363Z,12.36
2023-03-11T09:40:54.803Z,12.29
2023-03-11T09:44:11.143Z,12.21
2023-03-11T09:47:46.072Z,13.01
2023-03-11T09:51:01.019Z,14.01
2023-03-11T09:54:10.107Z,12.00
2023-03-11T09:57:18.051Z,11.15
2023-03-11T10:00:23.462Z,10.19
2023-03-11T10:03:33.923Z,9.33
2023-03-11T10:06:36.887Z,8.67
2023-03-11T10:09:53.513Z,9.02
2023-03-11T10:13:21.227Z,10.81
2023-03-11T10:16:44.278Z,10.07
2023-03-11T10:19:54.415Z,10.02
2023-03-11T10:23:16.568Z,10.09
2023-03-11T10:26:39.862Z,9.35
2023-03-11T10:29:52.011Z,9.22
2023-03-11T10:33:18.983Z,8.72
2023-03-11T10:36:27.360Z,8.81
2023-03-11T10:39:32.823Z,8.20
2023-03-11T10:42:36.982Z,7.75
2023-03-11T10:45:44.676Z,7.73
2023-03-11T10:48:47.685Z,7.60
2023-03-11T10:51:52.611Z,7.03
2023-03-11T10:55:02.902Z,7.48
2023-03-11T10:58:13.810Z,7.23
2023-03-11T11:01:18.716Z,7.36
2023-03-11T11:04:36.093Z,7.55
2023-03-11T11:07:41.203Z,7.72
2023-03-11T11:10:51.764Z,8.44
2023-03-11T11:14:00.420Z,9.17
2023-03-11T11:17:08.757Z,9.23
2023-03-11T11:20:18.156Z,8.96
2023-03-11T11:23:31.940Z,11.67
2023-03-11T11:26:34.872Z,10.76
2023-03-11T11:29:38.901Z,11.75
2023-03-11T11:32:44.089Z,10.79
2023-03-11T11:35:53.036Z,10.57
2023-03-11T11:38:57.098Z,11.13
2023-03-11T11:42:01.703Z,12.26
2023-03-11T11:45:15.915Z,11.16
2023-03-11T11:48:36.019Z,9.75
2023-03-11T11:51:43.024Z,8.70
2023-03-11T11:55:01.400Z,9.32
2023-03-11T11:58:10.229Z,8.41
2023-03-11T12:01:24.046Z,8.04
2023-03-11T12:05:03.975Z,8.11
2023-03-11T12:08:16.084Z,8.64
2023-03-11T12:11:23.015Z,9.75
2023-03-11T12:14:43.381Z,9.06
2023-03-11T12:17:50.560Z,9.19
2023-03-11T12:20:56.824Z,8.49
2023-03-11T12:24:10.808Z,8.90
2023-03-11T12:27:22.178Z,8.40
2023-03-11T12:30:36.956Z,9.01
2023-03-11T12:33:48.841Z,9.34
2023-03-11T12:36:55.701Z,10.02
2023-03-11T12:39:58.514Z,9.63
2023-03-11T12:43:01.610Z,9.23
2023-03-11T12:46:08.388Z,8.77
2023-03-11T12:49:13.479Z,8.46
2023-03-11T12:52:24.352Z,8.35
2023-03-11T12:55:33.185Z,8.24
2023-03-11T12:58:45.556Z,7.82
2023-03-11T13:01:58.330Z,7.58
2023-03-11T13:05:23.990Z,7.78
2023-03-11T13:08:36.357Z,7.96
2023-03-11T13:11:45.089Z,7.94
2023-03-11T13:14:48.124Z,7.31
2023-03-11T13:18:12.520Z,7.28
2023-03-11T13:21:27.673Z,7.55
2023-03-11T13:24:30.555Z,7.60
2023-03-11T13:27:42.200Z,7.49
2023-03-11T13:31:10.099Z,7.68
2023-03-11T13:34:51.249Z,7.35
2023-03-11T13:38:21.060Z,7.29
2023-03-11T13:41:36.456Z,7.17
2023-03-11T13:45:00.555Z,7.31
2023-03-11T13:48:12.715Z,7.47
2023-03-11T13:51:27.486Z,7.70
2023-03-11T13:54:46.729Z,7.62
2023-03-11T13:57:54.587Z,7.51
2023-03-11T14:01:02.263Z,7.38
2023-03-11T14:04:11.527Z,7.29
2023-03-11T14:07:22.801Z,7.66
2023-03-11T14:10:29.137Z,7.61
2023-03-11T14:13:40.113Z,7.45
2023-03-11T14:16:46.228Z,7.25
2023-03-11T14:20:28.990Z,7.56
2023-03-11T14:23:40.620Z,7.36
2023-03-11T14:26:44.240Z,7.39
2023-03-11T14:29:48.277Z,7.38
2023-03-11T14:33:21.828Z,7.04
2023-03-11T14:36:26.711Z,7.14
2023-03-11T14:39:33.619Z,7.30
2023-03-11T14:42:40.705Z,7.27
2023-03-11T14:45:44.359Z,7.11
2023-03-11T14:48:51.893Z,7.20
2023-03-11T14:52:05.666Z,6.93
2023-03-11T14:55:17.273Z,6.73
2023-03-11T14:58:26.464Z,6.89
2023-03-11T15:01:34.435Z,6.75
2023-03-11T15:04:40.005Z,6.75
2023-03-11T15:07:44.475Z,6.95
2023-03-11T15:11:06.426Z,6.90
2023-03-11T15:14:23.425Z,6.76
2023-03-11T15:17:38.399Z,6.66
2023-03-11T15:20:44.655Z,6.49
2023-03-11T15:23:50.245Z,6.57
2023-03-11T15:27:04.019Z,6.74
2023-03-11T15:30:25.252Z,6.60
2023-03-11T15:33:40.029Z,6.50
2023-03-11T15:36:57.500Z,6.31
2023-03-11T15:43:48.490Z,6.22
2023-03-11T15:46:53.058Z,6.32
2023-03-11T15:49:55.776Z,6.13
2023-03-11T15:52:59.410Z,6.20
2023-03-11T15:56:13.849Z,6.33
2023-03-11T15:59:18.353Z,6.34
2023-03-11T16:02:24.663Z,6.30
2023-03-11T16:05:28.843Z,6.32
2023-03-11T16:08:31.491Z,6.37
2023-03-11T16:11:46.243Z,6.31
2023-03-11T16:14:50.605Z,6.33
2023-03-11T16:17:55.170Z,5.95
2023-03-11T16:20:58.234Z,6.09
2023-03-11T16:24:01.535Z,5.94
2023-03-11T16:27:04.295Z,5.82
2023-03-11T16:30:12.326Z,5.80
2023-03-11T16:33:15.631Z,5.73
2023-03-11T16:36:18.635Z,5.70
2023-03-11T16:39:21.827Z,5.56
2023-03-11T16:42:25.364Z,5.56
2023-03-11T16:45:28.623Z,5.58
2023-03-11T16:48:32.880Z,5.62
2023-03-11T16:51:35.861Z,5.57
2023-03-11T16:54:38.779Z,5.57
2023-03-11T16:57:41.589Z,5.51
2023-03-11T17:00:45.232Z,5.47
2023-03-11T17:03:52.218Z,5.37
2023-03-11T17:06:55.516Z,5.31
2023-03-11T17:09:59.624Z,5.29
2023-03-11T17:13:02.967Z,5.33
2023-03-11T17:16:06.781Z,5.33
2023-03-11T17:19:09.670Z,5.21
2023-03-11T17:22:12.773Z,5.32
2023-03-11T17:25:18.066Z,5.05
2023-03-11T17:28:20.749Z,5.02
2023-03-11T17:31:25.286Z,5.06
2023-03-11T17:34:28.698Z,4.99
2023-03-11T17:37:31.908Z,4.88
2023-03-11T17:40:35.264Z,4.80
2023-03-11T17:43:39.512Z,4.68
2023-03-11T17:46:42.502Z,4.69
2023-03-11T17:49:45.779Z,4.72
2023-03-11T17:52:49.096Z,4.54
2023-03-11T17:55:52.267Z,4.53
2023-03-11T17:58:58.642Z,4.64
2023-03-11T18:02:02.096Z,4.61
2023-03-11T18:05:06.683Z,4.62
2023-03-11T18:08:09.454Z,4.53
2023-03-11T18:11:18.981Z,4.59
2023-03-11T18:14:22.695Z,4.50
2023-03-11T18:17:25.709Z,4.44
2023-03-11T18:20:29.234Z,4.42
2023-03-11T18:23:34.196Z,4.31
2023-03-11T18:26:37.093Z,4.20
2023-03-11T18:29:40.421Z,4.28
2023-03-11T18:32:43.913Z,4.25
2023-03-11T18:35:47.240Z,4.28
2023-03-11T18:38:52.945Z,4.25
2023-03-11T18:41:55.963Z,4.26
2023-03-11T18:45:00.064Z,4.24
2023-03-11T18:48:03.272Z,4.31
2023-03-11T18:51:08.394Z,4.28
2023-03-11T18:54:11.596Z,4.33
2023-03-11T18:57:15.967Z,4.26
2023-03-11T19:00:23.463Z,4.26
2023-03-11T19:03:26.233Z,4.25
2023-03-11T19:06:29.491Z,4.31
2023-03-11T19:09:32.684Z,4.25
2023-03-11T19:12:37.142Z,4.27
2023-03-11T19:15:41.527Z,4.12
2023-03-11T19:18:46.697Z,4.10
2023-03-11T19:21:49.680Z,4.14
2023-03-11T19:24:56.120Z,4.07
2023-03-11T19:27:58.927Z,3.91
2023-03-11T19:31:02.896Z,3.93
2023-03-11T19:34:05.861Z,3.84
2023-03-11T19:37:11.076Z,3.77
2023-03-11T19:40:15.808Z,3.77
2023-03-11T19:43:19.429Z,3.74
2023-03-11T19:46:23.484Z,3.67
2023-03-11T19:49:32.027Z,3.63
2023-03-11T19:52:36.119Z,3.51
2023-03-11T19:55:44.059Z,3.50
2023-03-11T19:58:46.958Z,3.44
2023-03-11T20:01:52.941Z,3.43
2023-03-11T20:04:58.497Z,3.43
2023-03-11T20:08:03.995Z,3.28
2023-03-11T20:11:16.244Z,3.23
2023-03-11T20:14:19.255Z,3.17
2023-03-11T20:17:23.338Z,3.23
2023-03-11T20:20:51.338Z,3.28
2023-03-11T20:23:56.014Z,3.19
2023-03-11T20:26:59.074Z,3.13
2023-03-11T20:30:03.665Z,3.09
2023-03-11T20:33:08.053Z,3.07
2023-03-11T20:36:13.523Z,2.97
2023-03-11T20:39:17.253Z,2.95
2023-03-11T20:42:23.188Z,2.97
2023-03-11T20:45:28.418Z,2.91
2023-03-11T20:48:31.602Z,2.86
2023-03-11T20:51:34.778Z,2.91
2023-03-11T20:54:37.869Z,2.76
2023-03-11T20:57:41.455Z,2.74
2023-03-11T21:00:46.511Z,2.73
2023-03-11T21:03:52.678Z,2.72
2023-03-11T21:06:58.947Z,2.59
2023-03-11T21:10:04.012Z,2.60
2023-03-11T21:13:07.727Z,2.53
2023-03-11T21:16:13.211Z,2.48
2023-03-11T21:19:16.577Z,2.52
2023-03-11T21:22:19.434Z,2.44
2023-03-11T21:25:22.749Z,2.51
2023-03-11T21:28:26.567Z,2.42
2023-03-11T21:31:32.674Z,2.45
2023-03-11T21:34:35.289Z,2.45
2023-03-11T21:37:38.604Z,2.43
2023-03-11T21:40:42.090Z,2.45
2023-03-11T21:44:11.378Z,2.37
2023-03-11T21:47:15.653Z,2.42
2023-03-11T21:50:21.753Z,2.43
2023-03-11T21:53:24.658Z,2.33
2023-03-11T21:56:28.743Z,2.37
2023-03-11T21:59:31.531Z,2.35
2023-03-11T22:02:34.815Z,2.35
2023-03-11T22:05:39.374Z,2.34
2023-03-11T22:08:43.467Z,2.37
2023-03-11T22:11:46.497Z,2.39
2023-03-11T22:14:49.294Z,2.38
2023-03-11T22:17:52.522Z,2.48
2023-03-11T22:20:59.456Z,2.37
2023-03-11T22:24:02.555Z,2.36
2023-03-11T22:27:05.140Z,2.36
2023-03-11T22:30:10.625Z,2.33
2023-03-11T22:33:13.330Z,2.39
2023-03-11T22:36:16.276Z,2.36
2023-03-11T22:39:18.837Z,2.41
2023-03-11T22:42:21.832Z,2.30
2023-03-11T22:45:24.515Z,2.28
2023-03-11T22:48:29.262Z,2.36
2023-03-11T22:51:35.596Z,2.29
2023-03-11T22:54:38.789Z,2.27
2023-03-11T22:57:41.370Z,2.28
2023-03-11T23:00:44.660Z,2.14
2023-03-11T23:03:48.290Z,2.12
2023-03-11T23:06:54.535Z,2.18
2023-03-11T23:09:57.259Z,2.06
2023-03-11T23:13:00.300Z,2.07
2023-03-11T23:16:08.511Z,1.99
2023-03-11T23:19:12.821Z,1.97
2023-03-11T23:22:15.564Z,1.88
2023-03-11T23:25:22.286Z,1.93
2023-03-11T23:28:30.431Z,1.90
2023-03-11T23:31:33.540Z,1.83
2023-03-11T23:34:37.881Z,1.89
2023-03-11T23:37:41.003Z,1.90
2023-03-11T23:40:43.786Z,1.83
2023-03-11T23:43:47.543Z,1.89
2023-03-11T23:46:52.874Z,1.84
2023-03-11T23:49:56.356Z,1.82
2023-03-11T23:56:18.855Z,1.75
2023-03-11T23:59:23.970Z,1.83
